Time;durP1;ratioP1;P1;durP2;ratioP2;P2;SDS_P1;SDS_P2;PMS_P1;PMS_P2;Temp;Humidity;BMP_temperature;BMP_pressure;BME280_temperature;BME280_humidity;BME280_pressure;Samples;Min_cycle;Max_cycle;Signal;HPM_P1;HPM_P2
2024/02/07 00:01:41;;;;;;;81.03;53.50;;;;;;;;;;6257309;28;24419;-78
2024/02/07 00:04:43;;;;;;;80.63;52.23;;;;;;;;;;6251706;28;24439;-78
2024/02/07 00:07:45;;;;;;;80.13;52.33;;;;;;;;;;6267020;28;24622;-77
2024/02/07 00:10:47;;;;;;;80.60;53.47;;;;;;;;;;6270250;28;24494;-78
2024/02/07 00:13:50;;;;;;;84.22;54.65;;;;;;;;;;6263956;28;24435;-78
2024/02/07 00:16:52;;;;;;;85.00;55.47;;;;;;;;;;6267299;28;24481;-77
2024/02/07 00:19:53;;;;;;;84.43;54.80;;;;;;;;;;6269346;28;25057;-78
2024/02/07 00:22:55;;;;;;;81.47;52.15;;;;;;;;;;6267417;28;24434;-76
2024/02/07 00:25:56;;;;;;;80.63;52.08;;;;;;;;;;6265578;28;24431;-77
2024/02/07 00:29:00;;;;;;;82.63;53.90;;;;;;;;;;6264357;28;24467;-77
2024/02/07 00:32:01;;;;;;;83.20;54.28;;;;;;;;;;6265566;28;24434;-77
2024/02/07 00:35:03;;;;;;;84.65;54.28;;;;;;;;;;6266889;28;24427;-76
2024/02/07 00:38:07;;;;;;;86.80;55.35;;;;;;;;;;6268173;28;24431;-77
2024/02/07 00:41:18;;;;;;;87.40;55.47;;;;;;;;;;6264174;28;24451;-77
2024/02/07 00:44:21;;;;;;;83.65;54.55;;;;;;;;;;6264268;28;24506;-77
2024/02/07 00:47:23;;;;;;;88.50;57.03;;;;;;;;;;6265396;28;24622;-78
2024/02/07 00:50:25;;;;;;;87.63;57.03;;;;;;;;;;6269938;28;24511;-77
2024/02/07 00:53:26;;;;;;;89.80;57.97;;;;;;;;;;6265482;28;24427;-77
2024/02/07 00:56:28;;;;;;;89.77;57.90;;;;;;;;;;6268627;28;24871;-77
2024/02/07 00:59:31;;;;;;;93.40;57.33;;;;;;;;;;6266445;28;24463;-77
2024/02/07 01:02:32;;;;;;;87.82;57.67;;;;;;;;;;6266945;28;24914;-77
2024/02/07 01:05:34;;;;;;;88.63;56.63;;;;;;;;;;6263434;28;24519;-77
2024/02/07 01:08:35;;;;;;;89.00;57.13;;;;;;;;;;6266218;28;24801;-74
2024/02/07 01:11:37;;;;;;;89.13;56.93;;;;;;;;;;6267895;28;24427;-73
2024/02/07 01:14:40;;;;;;;84.18;55.63;;;;;;;;;;6266350;28;24438;-74
2024/02/07 01:17:41;;;;;;;90.45;56.55;;;;;;;;;;6265079;28;24431;-73
2024/02/07 01:20:43;;;;;;;86.55;55.85;;;;;;;;;;6264051;28;24434;-74
2024/02/07 01:23:45;;;;;;;87.45;55.88;;;;;;;;;;6266619;28;24423;-73
2024/02/07 01:26:47;;;;;;;88.32;55.25;;;;;;;;;;6267043;28;24428;-74
2024/02/07 01:29:50;;;;;;;89.05;56.92;;;;;;;;;;6266063;28;24523;-74
2024/02/07 01:32:54;;;;;;;95.47;59.45;;;;;;;;;;6253479;28;24863;-74
2024/02/07 01:35:55;;;;;;;95.10;61.88;;;;;;;;;;6263899;28;24416;-74
2024/02/07 01:38:57;;;;;;;96.03;60.88;;;;;;;;;;6266062;28;24879;-73
2024/02/07 01:41:59;;;;;;;94.13;61.25;;;;;;;;;;6263066;28;24423;-73
2024/02/07 01:45:15;;;;;;;97.85;60.65;;;;;;;;;;6267781;28;24879;-74
2024/02/07 01:48:17;;;;;;;93.35;58.88;;;;;;;;;;6244745;28;24424;-73
2024/02/07 01:51:19;;;;;;;95.93;59.70;;;;;;;;;;6261494;28;24819;-74
2024/02/07 01:54:22;;;;;;;92.90;57.63;;;;;;;;;;6263830;28;24430;-74
2024/02/07 01:57:23;;;;;;;94.93;58.80;;;;;;;;;;6264063;28;24424;-74
2024/02/07 02:00:26;;;;;;;91.30;58.33;;;;;;;;;;6264594;28;24435;-74
2024/02/07 02:03:28;;;;;;;86.15;55.85;;;;;;;;;;6264788;28;25289;-74
2024/02/07 02:06:30;;;;;;;86.93;55.45;;;;;;;;;;6267503;28;24436;-73
2024/02/07 02:09:31;;;;;;;88.30;56.20;;;;;;;;;;6264050;28;24428;-73
2024/02/07 02:12:33;;;;;;;85.90;53.63;;;;;;;;;;6264397;28;24439;-74
2024/02/07 02:15:36;;;;;;;85.15;54.30;;;;;;;;;;6261552;28;24486;-74
2024/02/07 02:18:37;;;;;;;80.73;51.60;;;;;;;;;;6262174;28;24885;-78
2024/02/07 02:21:50;;;;;;;80.70;52.42;;;;;;;;;;6265001;28;24430;-78
2024/02/07 02:25:00;;;;;;;81.20;51.55;;;;;;;;;;6264234;28;24836;-78
2024/02/07 02:28:07;;;;;;;81.10;52.05;;;;;;;;;;6267152;28;24420;-77
2024/02/07 02:31:14;;;;;;;74.07;49.67;;;;;;;;;;6265051;28;24813;-77
2024/02/07 02:34:17;;;;;;;76.88;48.65;;;;;;;;;;6263866;28;24423;-78
2024/02/07 02:37:21;;;;;;;79.43;48.90;;;;;;;;;;6262782;28;24418;-78
2024/02/07 02:40:23;;;;;;;71.80;46.03;;;;;;;;;;6266497;28;24548;-78
2024/02/07 02:43:24;;;;;;;70.75;44.35;;;;;;;;;;6265459;28;24423;-78
2024/02/07 02:46:27;;;;;;;70.88;45.35;;;;;;;;;;6263568;28;24449;-78
2024/02/07 02:49:29;;;;;;;67.43;43.07;;;;;;;;;;6265874;28;24598;-78
2024/02/07 02:52:31;;;;;;;68.05;42.25;;;;;;;;;;6266872;28;24419;-78
2024/02/07 02:55:33;;;;;;;66.38;41.97;;;;;;;;;;6261900;28;24454;-76
2024/02/07 02:58:35;;;;;;;63.27;39.80;;;;;;;;;;6264742;28;24420;-77
2024/02/07 03:01:39;;;;;;;64.68;41.30;;;;;;;;;;6263640;28;24642;-78
2024/02/07 03:04:42;;;;;;;69.28;43.75;;;;;;;;;;6262552;28;24437;-77
2024/02/07 03:07:54;;;;;;;69.53;43.50;;;;;;;;;;6264977;28;24416;-77
2024/02/07 03:10:56;;;;;;;71.18;43.20;;;;;;;;;;6263705;28;24697;-78
2024/02/07 03:13:58;;;;;;;63.75;40.63;;;;;;;;;;6260785;28;24694;-78
2024/02/07 03:17:01;;;;;;;61.85;40.15;;;;;;;;;;6261947;28;24430;-78
2024/02/07 03:20:05;;;;;;;63.45;39.88;;;;;;;;;;6264323;28;24447;-78
2024/02/07 03:23:08;;;;;;;62.50;40.83;;;;;;;;;;6263030;28;24557;-78
2024/02/07 03:26:12;;;;;;;63.40;40.15;;;;;;;;;;6262001;28;24435;-78
2024/02/07 03:29:14;;;;;;;63.70;39.73;;;;;;;;;;6260243;28;24463;-74
2024/02/07 03:32:19;;;;;;;63.73;40.60;;;;;;;;;;6265091;28;24505;-74
2024/02/07 03:35:21;;;;;;;64.63;41.38;;;;;;;;;;6263925;28;24420;-76
2024/02/07 03:38:24;;;;;;;66.60;42.20;;;;;;;;;;6265486;28;24660;-74
2024/02/07 03:41:26;;;;;;;62.03;39.87;;;;;;;;;;6258675;28;24840;-74
2024/02/07 03:44:27;;;;;;;58.60;38.00;;;;;;;;;;6262532;28;24424;-74
2024/02/07 03:47:30;;;;;;;59.78;37.85;;;;;;;;;;6263922;28;24431;-74
2024/02/07 03:50:32;;;;;;;60.33;38.03;;;;;;;;;;6262963;28;24461;-74
2024/02/07 03:53:34;;;;;;;57.00;36.65;;;;;;;;;;6261037;28;24495;-74
2024/02/07 03:56:37;;;;;;;55.50;36.08;;;;;;;;;;6263088;28;24420;-74
2024/02/07 03:59:39;;;;;;;56.73;35.83;;;;;;;;;;6264616;28;24423;-74
2024/02/07 04:02:42;;;;;;;54.85;34.47;;;;;;;;;;6263621;28;24514;-74
2024/02/07 04:05:47;;;;;;;52.47;34.30;;;;;;;;;;6265682;28;24851;-74
2024/02/07 04:08:48;;;;;;;57.10;35.55;;;;;;;;;;6266880;28;24642;-73
2024/02/07 05:17:45;;;;;;;47.25;30.83;;;;;;;;;;6266436;28;24412;-75
2024/02/07 05:20:47;;;;;;;49.58;31.42;;;;;;;;;;6263395;28;24423;-75
2024/02/07 05:23:51;;;;;;;48.05;29.92;;;;;;;;;;6265481;28;24799;-75
2024/02/07 05:26:53;;;;;;;45.77;30.33;;;;;;;;;;6263309;28;24908;-75
2024/02/07 05:29:55;;;;;;;43.37;28.73;;;;;;;;;;6262565;28;24416;-75
2024/02/07 05:32:56;;;;;;;42.80;28.38;;;;;;;;;;6266766;28;24488;-74
2024/02/07 05:35:58;;;;;;;45.53;28.83;;;;;;;;;;6265631;28;24815;-75
2024/02/07 05:39:02;;;;;;;46.63;29.83;;;;;;;;;;6266034;28;24428;-75
2024/02/07 05:42:03;;;;;;;46.47;29.67;;;;;;;;;;6264182;28;24633;-75
2024/02/07 05:45:06;;;;;;;47.93;30.93;;;;;;;;;;6262378;28;24447;-75
2024/02/07 05:48:08;;;;;;;51.20;31.23;;;;;;;;;;6263028;28;24454;-75
2024/02/07 05:51:18;;;;;;;54.45;34.05;;;;;;;;;;6262605;28;24714;-75
2024/02/07 05:54:22;;;;;;;56.30;33.75;;;;;;;;;;6263515;28;24438;-75
2024/02/07 05:57:23;;;;;;;51.17;32.33;;;;;;;;;;6266184;28;24465;-75
2024/02/07 06:00:25;;;;;;;46.80;31.57;;;;;;;;;;6263964;28;24423;-75
2024/02/07 06:03:26;;;;;;;55.60;34.07;;;;;;;;;;6271626;28;24443;-75
2024/02/07 06:06:29;;;;;;;54.10;33.40;;;;;;;;;;6265679;28;24836;-75
2024/02/07 06:09:32;;;;;;;48.85;32.05;;;;;;;;;;6264527;28;24562;-75
2024/02/07 06:12:36;;;;;;;49.42;31.77;;;;;;;;;;6267706;28;24423;-75
2024/02/07 06:15:37;;;;;;;52.20;31.90;;;;;;;;;;6264644;28;24432;-75
2024/02/07 06:18:39;;;;;;;52.15;33.28;;;;;;;;;;6263012;28;24436;-75
2024/02/07 06:21:40;;;;;;;56.15;34.45;;;;;;;;;;6265424;28;24451;-75
2024/02/07 06:24:44;;;;;;;55.70;33.17;;;;;;;;;;6263110;28;24493;-75
2024/02/07 06:27:45;;;;;;;56.70;36.08;;;;;;;;;;6264452;28;24718;-75
2024/02/07 06:30:48;;;;;;;62.22;38.28;;;;;;;;;;6262133;28;24420;-75
2024/02/07 06:33:49;;;;;;;68.20;42.92;;;;;;;;;;6263218;28;24423;-76
2024/02/07 06:36:51;;;;;;;80.50;50.58;;;;;;;;;;6263134;28;24884;-75
2024/02/07 06:39:54;;;;;;;82.72;51.58;;;;;;;;;;6264274;28;24428;-75
2024/02/07 06:42:56;;;;;;;77.43;48.55;;;;;;;;;;6262807;28;24426;-75
2024/02/07 06:45:59;;;;;;;86.57;51.75;;;;;;;;;;6265897;28;24828;-75
2024/02/07 06:49:00;;;;;;;81.85;52.63;;;;;;;;;;6263626;28;24438;-75
2024/02/07 06:52:02;;;;;;;91.72;56.15;;;;;;;;;;6263031;28;24781;-75
2024/02/07 06:55:06;;;;;;;88.93;55.33;;;;;;;;;;6262618;28;24431;-75
2024/02/07 06:58:08;;;;;;;91.15;56.15;;;;;;;;;;6263531;28;24492;-78
2024/02/07 07:01:09;;;;;;;87.75;53.55;;;;;;;;;;6262668;28;24908;-78
2024/02/07 07:04:11;;;;;;;80.35;49.63;;;;;;;;;;6264811;28;24827;-78
2024/02/07 07:07:12;;;;;;;75.35;46.92;;;;;;;;;;6263516;28;24447;-78
2024/02/07 07:10:16;;;;;;;79.90;49.55;;;;;;;;;;6262783;28;24813;-78
2024/02/07 07:13:18;;;;;;;81.57;49.80;;;;;;;;;;6264888;28;24875;-79
2024/02/07 07:16:20;;;;;;;79.75;49.00;;;;;;;;;;6262215;28;24410;-78
2024/02/07 07:19:22;;;;;;;81.85;50.92;;;;;;;;;;6263322;28;24419;-78
2024/02/07 07:22:24;;;;;;;79.03;47.33;;;;;;;;;;6264072;28;24419;-78
2024/02/07 07:25:27;;;;;;;77.03;47.58;;;;;;;;;;6261316;28;24412;-78
2024/02/07 07:28:29;;;;;;;73.40;46.35;;;;;;;;;;6260661;28;24418;-78
2024/02/07 07:31:34;;;;;;;72.45;45.15;;;;;;;;;;6264752;28;24422;-78
2024/02/07 07:34:36;;;;;;;74.38;45.88;;;;;;;;;;6257868;28;24933;-78
2024/02/07 07:37:37;;;;;;;70.35;43.72;;;;;;;;;;6239453;28;24740;-78
2024/02/07 07:40:40;;;;;;;69.63;43.38;;;;;;;;;;6266736;28;24411;-76
2024/02/07 07:43:42;;;;;;;65.82;41.40;;;;;;;;;;6267545;28;24427;-78
2024/02/07 07:46:45;;;;;;;64.25;40.22;;;;;;;;;;6268227;28;24480;-78
2024/02/07 07:49:47;;;;;;;62.60;40.05;;;;;;;;;;6268112;28;24792;-78
2024/02/07 07:52:49;;;;;;;65.50;40.92;;;;;;;;;;6266067;28;24408;-78
2024/02/07 07:55:52;;;;;;;67.07;41.90;;;;;;;;;;6267295;28;24419;-78
2024/02/07 07:58:53;;;;;;;69.05;42.35;;;;;;;;;;6265980;28;24492;-78
2024/02/07 08:01:58;;;;;;;66.37;40.93;;;;;;;;;;6265169;28;24903;-79
2024/02/07 08:04:59;;;;;;;62.60;39.60;;;;;;;;;;6264994;28;24419;-79
2024/02/07 08:08:01;;;;;;;62.00;38.37;;;;;;;;;;6263579;28;24785;-75
2024/02/07 08:11:05;;;;;;;56.88;36.05;;;;;;;;;;6266133;28;24419;-75
2024/02/07 08:14:06;;;;;;;54.97;35.63;;;;;;;;;;6264656;28;24423;-76
2024/02/07 08:17:15;;;;;;;52.35;33.80;;;;;;;;;;6267331;28;24801;-74
2024/02/07 08:20:18;;;;;;;53.00;33.60;;;;;;;;;;6268629;28;24463;-75
2024/02/07 08:23:19;;;;;;;53.22;33.13;;;;;;;;;;6267409;28;24456;-74
2024/02/07 08:26:23;;;;;;;54.17;33.95;;;;;;;;;;6262831;28;24424;-75
2024/02/07 08:29:25;;;;;;;57.50;34.10;;;;;;;;;;6264344;28;24559;-74
2024/02/07 08:32:29;;;;;;;54.45;33.42;;;;;;;;;;6265807;28;24653;-75
2024/02/07 08:35:30;;;;;;;56.88;33.88;;;;;;;;;;6269934;28;24471;-75
2024/02/07 08:38:32;;;;;;;55.65;34.45;;;;;;;;;;6268609;28;24422;-75
2024/02/07 08:41:35;;;;;;;49.60;32.45;;;;;;;;;;6267604;28;24657;-75
2024/02/07 08:44:38;;;;;;;52.15;31.48;;;;;;;;;;6265394;28;24660;-75
2024/02/07 08:47:40;;;;;;;49.80;31.77;;;;;;;;;;6264575;28;24434;-75
2024/02/07 08:50:41;;;;;;;47.78;31.88;;;;;;;;;;6258152;28;25151;-75
2024/02/07 08:53:43;;;;;;;47.28;31.27;;;;;;;;;;6254615;28;24426;-75
2024/02/07 08:56:46;;;;;;;53.05;33.45;;;;;;;;;;6264211;28;24424;-73
2024/02/07 08:59:47;;;;;;;58.50;34.85;;;;;;;;;;6266153;28;24614;-75
2024/02/07 09:02:51;;;;;;;52.17;32.75;;;;;;;;;;6265507;28;24642;-75
2024/02/07 09:05:52;;;;;;;53.97;33.55;;;;;;;;;;6268533;28;24430;-75
2024/02/07 09:08:54;;;;;;;48.75;30.73;;;;;;;;;;6266813;28;24454;-75
2024/02/07 09:11:57;;;;;;;47.25;31.58;;;;;;;;;;6266392;28;24427;-75
2024/02/07 09:14:59;;;;;;;44.65;30.80;;;;;;;;;;6266797;28;24434;-75
2024/02/07 09:18:00;;;;;;;46.80;30.47;;;;;;;;;;6267082;28;24597;-75
2024/02/07 09:21:02;;;;;;;45.22;30.10;;;;;;;;;;6267410;28;24431;-74
2024/02/07 09:24:04;;;;;;;45.45;29.52;;;;;;;;;;6263602;28;24451;-75
2024/02/07 09:27:07;;;;;;;46.33;28.58;;;;;;;;;;6263510;28;24474;-75
2024/02/07 09:30:10;;;;;;;44.25;26.70;;;;;;;;;;6263454;28;24414;-75
2024/02/07 09:33:12;;;;;;;39.63;24.63;;;;;;;;;;6264264;28;24515;-75
2024/02/07 09:36:13;;;;;;;36.50;24.58;;;;;;;;;;6246788;28;24609;-75
2024/02/07 09:39:15;;;;;;;38.60;24.52;;;;;;;;;;6261494;28;24419;-75
2024/02/07 09:42:19;;;;;;;40.33;25.33;;;;;;;;;;6266717;28;24422;-76
2024/02/07 09:45:21;;;;;;;37.38;23.13;;;;;;;;;;6266478;28;24427;-76
2024/02/07 09:48:24;;;;;;;34.25;22.77;;;;;;;;;;6267671;28;24515;-76
2024/02/07 09:51:25;;;;;;;34.27;21.50;;;;;;;;;;6262773;28;24454;-75
2024/02/07 09:54:27;;;;;;;107.37;64.80;;;;;;;;;;6268267;28;24422;-76
2024/02/07 09:57:30;;;;;;;120.67;66.97;;;;;;;;;;6264917;28;24415;-75
2024/02/07 10:00:32;;;;;;;80.25;46.53;;;;;;;;;;6268926;28;24463;-75
2024/02/07 10:03:34;;;;;;;93.80;52.28;;;;;;;;;;6262936;28;24426;-75
2024/02/07 10:06:36;;;;;;;105.40;57.37;;;;;;;;;;6267037;28;24470;-75
2024/02/07 10:09:38;;;;;;;104.13;55.13;;;;;;;;;;6268464;28;24455;-75
2024/02/07 10:12:41;;;;;;;77.40;43.72;;;;;;;;;;6254457;28;24424;-74
2024/02/07 10:15:43;;;;;;;68.55;40.88;;;;;;;;;;6251608;28;24458;-76
2024/02/07 10:18:48;;;;;;;46.67;31.17;;;;;;;;;;6261646;28;24415;-77
2024/02/07 10:21:50;;;;;;;41.58;26.15;;;;;;;;;;6266713;28;24637;-76
2024/02/07 10:24:51;;;;;;;38.53;24.17;;;;;;;;;;6263690;28;24466;-76
2024/02/07 10:28:02;;;;;;;34.23;23.43;;;;;;;;;;6264141;28;24460;-77
2024/02/07 10:31:05;;;;;;;37.13;24.98;;;;;;;;;;6263545;28;24431;-80
2024/02/07 10:34:18;;;;;;;40.53;25.13;;;;;;;;;;6265140;28;24805;-79
2024/02/07 10:37:19;;;;;;;39.35;25.25;;;;;;;;;;6264843;28;24808;-80
2024/02/07 10:40:21;;;;;;;40.45;25.05;;;;;;;;;;6266844;28;24613;-79
2024/02/07 10:43:28;;;;;;;38.58;24.60;;;;;;;;;;6264574;28;24435;-79
2024/02/07 10:46:29;;;;;;;38.67;24.92;;;;;;;;;;6264891;28;24420;-79
2024/02/07 10:49:32;;;;;;;37.42;23.20;;;;;;;;;;6257651;28;24437;-79
2024/02/07 10:52:33;;;;;;;38.57;23.93;;;;;;;;;;6246872;28;24422;-78
2024/02/07 10:55:35;;;;;;;38.10;24.20;;;;;;;;;;6265869;28;24757;-79
2024/02/07 10:58:38;;;;;;;35.15;22.42;;;;;;;;;;6262279;28;24753;-79
2024/02/07 11:01:39;;;;;;;36.22;24.67;;;;;;;;;;6267492;28;24412;-78
2024/02/07 11:04:41;;;;;;;37.95;24.25;;;;;;;;;;6262236;28;24481;-78
2024/02/07 11:07:43;;;;;;;37.08;24.55;;;;;;;;;;6262752;28;24843;-79
2024/02/07 11:10:45;;;;;;;35.67;23.52;;;;;;;;;;6264845;28;24843;-79
2024/02/07 11:13:48;;;;;;;38.08;25.48;;;;;;;;;;6259753;28;24530;-78
2024/02/07 11:16:50;;;;;;;39.08;24.67;;;;;;;;;;6256340;28;24420;-79
2024/02/07 11:19:51;;;;;;;34.33;23.40;;;;;;;;;;6246276;28;24490;-78
2024/02/07 11:22:53;;;;;;;39.97;26.02;;;;;;;;;;6264766;28;24446;-78
2024/02/07 11:25:55;;;;;;;35.30;23.40;;;;;;;;;;6263976;28;24416;-78
2024/02/07 11:28:58;;;;;;;30.73;20.65;;;;;;;;;;6266053;28;24428;-78
2024/02/07 11:32:01;;;;;;;34.78;22.33;;;;;;;;;;6255624;28;24470;-78
2024/02/07 11:35:03;;;;;;;30.20;20.13;;;;;;;;;;6253904;28;24434;-78
2024/02/07 11:38:05;;;;;;;29.15;19.67;;;;;;;;;;6261336;28;24610;-75
2024/02/07 11:41:07;;;;;;;30.20;19.90;;;;;;;;;;6262225;28;24447;-75
2024/02/07 11:44:12;;;;;;;32.20;19.50;;;;;;;;;;6264068;28;24791;-75
2024/02/07 11:47:23;;;;;;;32.80;21.40;;;;;;;;;;6262276;28;24653;-75
2024/02/07 11:50:24;;;;;;;29.83;19.75;;;;;;;;;;6262953;28;24626;-75
2024/02/07 11:53:27;;;;;;;28.90;18.70;;;;;;;;;;6263467;28;24825;-75
2024/02/07 11:56:31;;;;;;;34.20;22.30;;;;;;;;;;6260906;28;24486;-75
2024/02/07 11:59:35;;;;;;;33.80;21.45;;;;;;;;;;6257426;28;24645;-75
2024/02/07 12:02:37;;;;;;;35.15;24.13;;;;;;;;;;6265167;28;24411;-75
2024/02/07 12:05:39;;;;;;;35.00;23.17;;;;;;;;;;6260910;28;24416;-75
2024/02/07 12:08:40;;;;;;;33.00;21.73;;;;;;;;;;6262983;28;25052;-76
2024/02/07 12:11:42;;;;;;;33.25;21.60;;;;;;;;;;6264252;28;24824;-75
2024/02/07 12:14:46;;;;;;;35.40;22.35;;;;;;;;;;6263346;28;24474;-75
2024/02/07 12:17:47;;;;;;;119.30;71.00;;;;;;;;;;6262103;28;24420;-75
2024/02/07 12:20:49;;;;;;;53.35;33.63;;;;;;;;;;6258373;28;24724;-75
2024/02/07 12:23:51;;;;;;;34.53;21.10;;;;;;;;;;6261119;28;24477;-75
2024/02/07 12:26:52;;;;;;;26.00;18.50;;;;;;;;;;6264325;28;24467;-75
2024/02/07 12:29:56;;;;;;;27.30;18.30;;;;;;;;;;6267974;28;24426;-75
2024/02/07 12:32:58;;;;;;;25.90;17.38;;;;;;;;;;6266747;28;24428;-75
2024/02/07 12:36:01;;;;;;;26.13;18.30;;;;;;;;;;6267111;28;24438;-75
2024/02/07 12:39:04;;;;;;;26.13;18.35;;;;;;;;;;6267621;28;24420;-75
2024/02/07 12:42:06;;;;;;;26.17;17.98;;;;;;;;;;6267709;28;24430;-75
2024/02/07 12:45:13;;;;;;;27.00;18.70;;;;;;;;;;6273097;28;24436;-74
2024/02/07 12:48:15;;;;;;;25.08;17.02;;;;;;;;;;6265505;28;24535;-77
2024/02/07 12:51:16;;;;;;;27.17;18.48;;;;;;;;;;6263669;28;24424;-77
2024/02/07 12:54:18;;;;;;;26.00;17.52;;;;;;;;;;6266170;28;24435;-78
2024/02/07 12:57:23;;;;;;;26.25;17.40;;;;;;;;;;6248764;28;24420;-78
2024/02/07 13:00:27;;;;;;;24.55;15.38;;;;;;;;;;6264805;28;24450;-78
2024/02/07 13:03:29;;;;;;;20.30;13.20;;;;;;;;;;6265631;28;24435;-78
2024/02/07 13:06:31;;;;;;;18.75;12.38;;;;;;;;;;6266670;28;24419;-77
2024/02/07 13:09:32;;;;;;;17.90;12.07;;;;;;;;;;6261963;28;24432;-77
2024/02/07 13:12:35;;;;;;;18.43;11.57;;;;;;;;;;6262599;28;24497;-78
2024/02/07 13:15:38;;;;;;;19.30;11.20;;;;;;;;;;6262353;28;24503;-78
2024/02/07 13:18:40;;;;;;;16.88;10.30;;;;;;;;;;6267724;28;24991;-78
2024/02/07 13:21:41;;;;;;;17.85;10.38;;;;;;;;;;6267653;28;24427;-77
2024/02/07 13:24:43;;;;;;;14.95;9.75;;;;;;;;;;6264433;28;24466;-78
2024/02/07 13:27:45;;;;;;;14.93;8.73;;;;;;;;;;6264152;28;24412;-78
2024/02/07 13:30:48;;;;;;;16.58;8.82;;;;;;;;;;6267822;28;24431;-78
2024/02/07 13:33:51;;;;;;;12.60;8.27;;;;;;;;;;6263752;28;24435;-78
2024/02/07 13:36:53;;;;;;;14.10;9.23;;;;;;;;;;6241757;28;24431;-78
2024/02/07 13:39:55;;;;;;;17.05;10.48;;;;;;;;;;6266342;28;24426;-79
2024/02/07 13:42:56;;;;;;;18.67;12.80;;;;;;;;;;6268260;28;24820;-79
2024/02/07 13:46:02;;;;;;;19.73;12.38;;;;;;;;;;6261891;28;24439;-78
2024/02/07 13:49:08;;;;;;;16.23;10.90;;;;;;;;;;6263520;28;24700;-79
2024/02/07 13:52:10;;;;;;;18.53;10.80;;;;;;;;;;6260635;28;24566;-77
2024/02/07 13:55:11;;;;;;;22.10;12.35;;;;;;;;;;6258072;28;26088;-77
2024/02/07 13:58:14;;;;;;;19.83;12.35;;;;;;;;;;6266519;28;25084;-75
2024/02/07 14:01:17;;;;;;;17.73;11.15;;;;;;;;;;6266446;28;24685;-75
2024/02/07 14:04:20;;;;;;;17.00;11.50;;;;;;;;;;6259943;28;24851;-75
2024/02/07 14:07:21;;;;;;;17.97;10.83;;;;;;;;;;6263184;28;24628;-75
2024/02/07 14:10:23;;;;;;;14.80;10.02;;;;;;;;;;6263378;28;24423;-75
2024/02/07 14:13:25;;;;;;;17.17;10.60;;;;;;;;;;6259760;28;24824;-75
2024/02/07 14:16:28;;;;;;;16.00;9.88;;;;;;;;;;6262288;28;24622;-75
2024/02/07 14:19:30;;;;;;;14.75;10.23;;;;;;;;;;6258778;28;24399;-75
2024/02/07 14:22:31;;;;;;;16.48;10.57;;;;;;;;;;6268421;28;25021;-75
2024/02/07 14:25:33;;;;;;;15.53;10.07;;;;;;;;;;6268917;28;24537;-74
2024/02/07 14:28:34;;;;;;;13.82;8.65;;;;;;;;;;6258464;28;24477;-75
2024/02/07 14:31:38;;;;;;;12.25;7.03;;;;;;;;;;6264431;28;24430;-75
2024/02/07 14:34:39;;;;;;;10.52;7.03;;;;;;;;;;6267101;28;24617;-74
2024/02/07 14:37:41;;;;;;;12.15;7.22;;;;;;;;;;6266180;28;24489;-75
2024/02/07 14:40:44;;;;;;;10.30;6.40;;;;;;;;;;6262058;28;24426;-75
2024/02/07 14:43:45;;;;;;;11.93;7.20;;;;;;;;;;6264937;28;24412;-73
2024/02/07 14:46:48;;;;;;;10.98;6.55;;;;;;;;;;6262632;28;24418;-75
2024/02/07 14:49:50;;;;;;;10.95;7.07;;;;;;;;;;6266036;28;24426;-74
2024/02/07 14:52:52;;;;;;;10.27;6.20;;;;;;;;;;6265408;28;24431;-75
2024/02/07 14:55:58;;;;;;;9.50;6.47;;;;;;;;;;6257205;28;24424;-75
2024/02/07 14:58:59;;;;;;;12.95;7.38;;;;;;;;;;6263989;28;24416;-75
2024/02/07 15:02:02;;;;;;;12.27;7.10;;;;;;;;;;6264730;28;24415;-76
2024/02/07 15:05:04;;;;;;;12.20;7.65;;;;;;;;;;6267623;28;24426;-75
2024/02/07 15:08:08;;;;;;;13.50;7.97;;;;;;;;;;6264776;28;24427;-75
2024/02/07 15:11:10;;;;;;;14.43;7.68;;;;;;;;;;6267406;28;24482;-75
2024/02/07 15:14:12;;;;;;;14.70;8.55;;;;;;;;;;6264584;28;24424;-75
2024/02/07 15:17:15;;;;;;;15.87;8.57;;;;;;;;;;6263660;28;24443;-74
2024/02/07 15:20:19;;;;;;;18.60;9.00;;;;;;;;;;6259728;28;24427;-74
2024/02/07 15:23:21;;;;;;;14.98;8.30;;;;;;;;;;6266171;28;24428;-75
2024/02/07 15:26:22;;;;;;;16.70;9.55;;;;;;;;;;6265556;28;24430;-75
2024/02/07 15:29:24;;;;;;;16.15;9.38;;;;;;;;;;6262351;28;24426;-75
2024/02/07 15:32:27;;;;;;;15.02;9.00;;;;;;;;;;6261728;28;24467;-75
2024/02/07 15:35:29;;;;;;;17.05;9.68;;;;;;;;;;6259502;28;24508;-75
2024/02/07 15:38:34;;;;;;;15.18;8.60;;;;;;;;;;6249725;28;24427;-74
2024/02/07 15:41:36;;;;;;;16.10;9.23;;;;;;;;;;6261898;28;24419;-74
2024/02/07 15:44:39;;;;;;;18.35;9.38;;;;;;;;;;6260992;28;24416;-74
2024/02/07 15:47:42;;;;;;;15.00;9.38;;;;;;;;;;6261602;28;24431;-74
2024/02/07 15:50:43;;;;;;;14.90;9.13;;;;;;;;;;6263863;28;24420;-74
2024/02/07 15:53:45;;;;;;;15.07;9.05;;;;;;;;;;6261878;28;24725;-75
2024/02/07 15:56:47;;;;;;;14.45;8.77;;;;;;;;;;6263464;28;24427;-74
2024/02/07 15:59:49;;;;;;;20.83;10.10;;;;;;;;;;6264607;28;24442;-74
2024/02/07 16:02:53;;;;;;;19.17;10.50;;;;;;;;;;6268912;28;24431;-74
2024/02/07 16:05:56;;;;;;;15.98;9.55;;;;;;;;;;6266694;28;24470;-75
2024/02/07 16:08:57;;;;;;;17.50;10.70;;;;;;;;;;6265676;28;24805;-75
2024/02/07 16:11:59;;;;;;;18.73;10.48;;;;;;;;;;6267954;28;24432;-73
2024/02/07 16:15:00;;;;;;;15.80;9.88;;;;;;;;;;6268502;28;24415;-74
2024/02/07 16:18:04;;;;;;;19.73;10.05;;;;;;;;;;6266560;28;24420;-74
2024/02/07 16:21:06;;;;;;;18.40;10.00;;;;;;;;;;6266229;28;24427;-74
2024/02/07 16:24:08;;;;;;;14.93;10.07;;;;;;;;;;6272158;28;24491;-74
2024/02/07 16:27:09;;;;;;;18.55;10.45;;;;;;;;;;6270598;28;24420;-75
2024/02/07 16:30:11;;;;;;;21.25;11.38;;;;;;;;;;6268674;28;24526;-74
2024/02/07 16:33:14;;;;;;;17.48;10.60;;;;;;;;;;6269600;28;24816;-74
2024/02/07 16:36:16;;;;;;;18.17;10.90;;;;;;;;;;6269097;28;24835;-74
2024/02/07 16:39:17;;;;;;;17.90;11.10;;;;;;;;;;6269613;28;24638;-74
2024/02/07 16:42:21;;;;;;;19.10;10.32;;;;;;;;;;6266367;28;24450;-75
2024/02/07 16:45:23;;;;;;;18.90;11.30;;;;;;;;;;6267805;28;24847;-76
2024/02/07 16:48:26;;;;;;;17.95;10.70;;;;;;;;;;6269959;28;24867;-75
2024/02/07 16:51:27;;;;;;;18.13;10.93;;;;;;;;;;6264865;28;24411;-76
2024/02/07 16:54:29;;;;;;;16.13;10.50;;;;;;;;;;6269285;28;24906;-75
2024/02/07 16:57:31;;;;;;;21.17;11.15;;;;;;;;;;6262843;28;24416;-75
2024/02/07 17:00:33;;;;;;;17.63;10.63;;;;;;;;;;6265852;28;24450;-75
2024/02/07 17:03:39;;;;;;;20.75;11.38;;;;;;;;;;6266722;28;24547;-75
2024/02/07 17:06:41;;;;;;;17.23;11.13;;;;;;;;;;6266823;28;24426;-75
2024/02/07 17:09:42;;;;;;;17.27;11.20;;;;;;;;;;6268266;28;24462;-76
2024/02/07 17:12:44;;;;;;;17.70;12.00;;;;;;;;;;6269385;28;24430;-76
2024/02/07 17:15:47;;;;;;;19.73;12.20;;;;;;;;;;6264464;28;24848;-75
2024/02/07 17:18:50;;;;;;;19.52;11.55;;;;;;;;;;6267654;28;24445;-74
2024/02/07 17:21:52;;;;;;;19.50;11.73;;;;;;;;;;6262299;28;24900;-75
2024/02/07 17:24:55;;;;;;;16.97;11.07;;;;;;;;;;6264821;28;24673;-75
2024/02/07 17:27:59;;;;;;;19.75;11.90;;;;;;;;;;6266848;28;24938;-75
2024/02/07 17:31:05;;;;;;;18.25;11.77;;;;;;;;;;6267114;28;24451;-75
2024/02/07 17:34:08;;;;;;;18.63;11.73;;;;;;;;;;6265545;28;24473;-75
2024/02/07 17:37:13;;;;;;;17.27;11.48;;;;;;;;;;6266387;28;24426;-75
2024/02/07 17:40:14;;;;;;;18.05;11.68;;;;;;;;;;6265092;28;24440;-75
2024/02/07 17:43:18;;;;;;;16.87;11.03;;;;;;;;;;6266260;28;24557;-75
2024/02/07 17:46:20;;;;;;;15.30;10.70;;;;;;;;;;6263941;28;24439;-75
2024/02/07 17:49:23;;;;;;;17.00;10.80;;;;;;;;;;6266295;28;24824;-75
2024/02/07 17:52:25;;;;;;;18.73;11.50;;;;;;;;;;6266142;28;24433;-75
2024/02/07 17:55:27;;;;;;;19.00;12.25;;;;;;;;;;6265857;28;24844;-75
2024/02/07 17:58:30;;;;;;;18.52;11.57;;;;;;;;;;6247396;28;24423;-75
2024/02/07 18:01:32;;;;;;;20.08;11.75;;;;;;;;;;6263892;28;24483;-75
2024/02/07 18:04:36;;;;;;;64.38;36.03;;;;;;;;;;6269055;28;24418;-75
2024/02/07 18:07:40;;;;;;;70.90;37.80;;;;;;;;;;6264520;28;24488;-74
2024/02/07 18:10:41;;;;;;;35.33;21.92;;;;;;;;;;6265443;28;24411;-75
2024/02/07 18:13:43;;;;;;;25.38;16.10;;;;;;;;;;6267106;28;24733;-74
2024/02/07 18:16:45;;;;;;;22.33;13.63;;;;;;;;;;6263519;28;24836;-74
2024/02/07 18:19:49;;;;;;;20.48;13.68;;;;;;;;;;6267518;28;24403;-74
2024/02/07 18:22:51;;;;;;;20.77;13.27;;;;;;;;;;6262303;28;24502;-75
2024/02/07 18:25:53;;;;;;;18.48;12.38;;;;;;;;;;6264933;28;24489;-74
2024/02/07 18:28:57;;;;;;;19.55;13.10;;;;;;;;;;6266569;28;24427;-74
2024/02/07 18:31:59;;;;;;;20.35;13.95;;;;;;;;;;6264417;28;24420;-76
2024/02/07 18:35:02;;;;;;;19.90;13.48;;;;;;;;;;6261354;28;24839;-74
2024/02/07 18:38:03;;;;;;;19.25;12.82;;;;;;;;;;6263807;28;24444;-79
2024/02/07 18:41:05;;;;;;;22.33;13.88;;;;;;;;;;6268234;28;24428;-78
2024/02/07 18:44:07;;;;;;;19.07;14.03;;;;;;;;;;6265448;28;24425;-78
2024/02/07 18:47:12;;;;;;;20.03;13.70;;;;;;;;;;6262907;28;24875;-79
2024/02/07 18:50:15;;;;;;;22.55;14.00;;;;;;;;;;6267777;28;24419;-78